sensor_id;sensor_type;location;lat;lon;timestamp;temperature;humidity
7792;DHT22;3940;49.892;10.886;2022-10-01T00:02:11;9.00;99.90
7792;DHT22;3940;49.892;10.886;2022-10-01T00:04:56;9.10;99.90
7792;DHT22;3940;49.892;10.886;2022-10-01T00:07:42;9.10;99.90
7792;DHT22;3940;49.892;10.886;2022-10-01T00:10:27;9.20;99.90
7792;DHT22;3940;49.892;10.886;2022-10-01T00:13:14;8.90;99.90
7792;DHT22;3940;49.892;10.886;2022-10-01T00:15:58;9.00;99.90
7792;DHT22;3940;49.892;10.886;2022-10-01T00:18:44;9.00;99.90
7792;DHT22;3940;49.892;10.886;2022-10-01T00:21:31;9.20;99.90
7792;DHT22;3940;49.892;10.886;2022-10-01T00:24:15;9.20;99.90
7792;DHT22;3940;49.892;10.886;2022-10-01T00:27:00;9.30;99.90
7792;DHT22;3940;49.892;10.886;2022-10-01T00:29:44;9.40;99.90
7792;DHT22;3940;49.892;10.886;2022-10-01T00:32:29;9.20;99.90
7792;DHT22;3940;49.892;10.886;2022-10-01T00:35:15;9.10;99.90
7792;DHT22;3940;49.892;10.886;2022-10-01T00:38:00;9.20;99.90
7792;DHT22;3940;49.892;10.886;2022-10-01T00:40:45;9.20;99.90
7792;DHT22;3940;49.892;10.886;2022-10-01T00:43:33;9.20;99.90
7792;DHT22;3940;49.892;10.886;2022-10-01T00:46:24;9.20;99.90
7792;DHT22;3940;49.892;10.886;2022-10-01T00:49:16;9.40;99.90
7792;DHT22;3940;49.892;10.886;2022-10-01T00:52:05;9.10;99.90
7792;DHT22;3940;49.892;10.886;2022-10-01T00:54:56;9.10;99.90
7792;DHT22;3940;49.892;10.886;2022-10-01T00:57:42;9.20;99.90
7792;DHT22;3940;49.892;10.886;2022-10-01T01:00:29;9.10;99.90
7792;DHT22;3940;49.892;10.886;2022-10-01T01:03:14;9.10;99.90
7792;DHT22;3940;49.892;10.886;2022-10-01T01:05:59;9.00;99.90
7792;DHT22;3940;49.892;10.886;2022-10-01T01:08:44;8.80;99.90
7792;DHT22;3940;49.892;10.886;2022-10-01T01:11:39;8.60;99.90
7792;DHT22;3940;49.892;10.886;2022-10-01T01:14:53;8.80;99.90
7792;DHT22;3940;49.892;10.886;2022-10-01T01:17:51;8.90;99.90
7792;DHT22;3940;49.892;10.886;2022-10-01T01:21:16;8.90;99.90
7792;DHT22;3940;49.892;10.886;2022-10-01T01:24:10;8.80;99.90
7792;DHT22;3940;49.892;10.886;2022-10-01T01:27:06;8.90;99.90
7792;DHT22;3940;49.892;10.886;2022-10-01T01:30:05;8.80;99.90
7792;DHT22;3940;49.892;10.886;2022-10-01T01:32:57;8.90;99.90
7792;DHT22;3940;49.892;10.886;2022-10-01T01:35:53;9.00;99.90
7792;DHT22;3940;49.892;10.886;2022-10-01T01:38:45;8.90;99.90
7792;DHT22;3940;49.892;10.886;2022-10-01T01:41:36;9.10;99.90
7792;DHT22;3940;49.892;10.886;2022-10-01T01:44:25;9.20;99.90
7792;DHT22;3940;49.892;10.886;2022-10-01T01:47:12;9.10;99.90
7792;DHT22;3940;49.892;10.886;2022-10-01T01:49:59;8.90;99.90
7792;DHT22;3940;49.892;10.886;2022-10-01T01:52:46;9.00;99.90
7792;DHT22;3940;49.892;10.886;2022-10-01T01:55:31;8.90;99.90
7792;DHT22;3940;49.892;10.886;2022-10-01T01:58:17;8.80;99.90
7792;DHT22;3940;49.892;10.886;2022-10-01T02:01:02;8.80;99.90
7792;DHT22;3940;49.892;10.886;2022-10-01T02:03:48;8.80;99.90
7792;DHT22;3940;49.892;10.886;2022-10-01T02:13:16;8.70;99.90
7792;DHT22;3940;49.892;10.886;2022-10-01T02:16:17;8.70;99.90
7792;DHT22;3940;49.892;10.886;2022-10-01T02:19:17;8.50;99.90
7792;DHT22;3940;49.892;10.886;2022-10-01T02:22:12;8.50;99.90
7792;DHT22;3940;49.892;10.886;2022-10-01T02:25:02;8.40;99.90
7792;DHT22;3940;49.892;10.886;2022-10-01T02:27:54;8.40;99.90
7792;DHT22;3940;49.892;10.886;2022-10-01T02:30:43;8.40;99.90
7792;DHT22;3940;49.892;10.886;2022-10-01T02:33:31;8.50;99.90
7792;DHT22;3940;49.892;10.886;2022-10-01T02:36:19;8.60;99.90
7792;DHT22;3940;49.892;10.886;2022-10-01T02:39:05;8.60;99.90
7792;DHT22;3940;49.892;10.886;2022-10-01T02:41:53;8.50;99.90
7792;DHT22;3940;49.892;10.886;2022-10-01T02:44:41;8.40;99.90
7792;DHT22;3940;49.892;10.886;2022-10-01T02:47:36;8.20;99.90
7792;DHT22;3940;49.892;10.886;2022-10-01T02:50:27;8.00;99.90
7792;DHT22;3940;49.892;10.886;2022-10-01T02:53:23;7.90;99.90
7792;DHT22;3940;49.892;10.886;2022-10-01T02:56:11;8.00;99.90
7792;DHT22;3940;49.892;10.886;2022-10-01T02:58:58;8.10;99.90
7792;DHT22;3940;49.892;10.886;2022-10-01T03:01:43;8.00;99.90
7792;DHT22;3940;49.892;10.886;2022-10-01T03:04:29;8.10;99.90
7792;DHT22;3940;49.892;10.886;2022-10-01T03:07:14;8.00;99.90
7792;DHT22;3940;49.892;10.886;2022-10-01T03:09:59;8.00;99.90
7792;DHT22;3940;49.892;10.886;2022-10-01T03:12:44;8.00;99.90
7792;DHT22;3940;49.892;10.886;2022-10-01T03:15:29;7.90;99.90
7792;DHT22;3940;49.892;10.886;2022-10-01T03:18:14;7.90;99.90
7792;DHT22;3940;49.892;10.886;2022-10-01T03:20:58;7.80;99.90
7792;DHT22;3940;49.892;10.886;2022-10-01T03:23:43;7.80;99.90
7792;DHT22;3940;49.892;10.886;2022-10-01T03:26:28;7.90;99.90
7792;DHT22;3940;49.892;10.886;2022-10-01T03:29:13;8.20;99.90
7792;DHT22;3940;49.892;10.886;2022-10-01T03:31:58;8.30;99.90
7792;DHT22;3940;49.892;10.886;2022-10-01T03:34:43;8.40;99.90
7792;DHT22;3940;49.892;10.886;2022-10-01T03:37:29;8.20;99.90
7792;DHT22;3940;49.892;10.886;2022-10-01T03:40:14;8.20;99.90
7792;DHT22;3940;49.892;10.886;2022-10-01T03:42:59;8.20;99.90
7792;DHT22;3940;49.892;10.886;2022-10-01T03:45:45;8.30;99.90
7792;DHT22;3940;49.892;10.886;2022-10-01T03:48:29;8.40;99.90
7792;DHT22;3940;49.892;10.886;2022-10-01T03:51:14;8.50;99.90
7792;DHT22;3940;49.892;10.886;2022-10-01T03:53:59;8.60;99.90
7792;DHT22;3940;49.892;10.886;2022-10-01T03:56:44;8.60;99.90
7792;DHT22;3940;49.892;10.886;2022-10-01T03:59:29;8.80;99.90
7792;DHT22;3940;49.892;10.886;2022-10-01T04:02:14;8.80;99.90
7792;DHT22;3940;49.892;10.886;2022-10-01T04:04:58;8.90;99.90
7792;DHT22;3940;49.892;10.886;2022-10-01T04:07:43;8.70;99.90
7792;DHT22;3940;49.892;10.886;2022-10-01T04:10:28;8.90;99.90
7792;DHT22;3940;49.892;10.886;2022-10-01T04:13:13;8.80;99.90
7792;DHT22;3940;49.892;10.886;2022-10-01T04:15:57;8.80;99.90
7792;DHT22;3940;49.892;10.886;2022-10-01T04:18:42;8.80;99.90
7792;DHT22;3940;49.892;10.886;2022-10-01T04:21:27;8.80;99.90
7792;DHT22;3940;49.892;10.886;2022-10-01T04:24:12;8.70;99.90
7792;DHT22;3940;49.892;10.886;2022-10-01T04:26:56;8.60;99.90
7792;DHT22;3940;49.892;10.886;2022-10-01T04:29:41;8.40;99.90
7792;DHT22;3940;49.892;10.886;2022-10-01T04:32:25;8.20;99.90
7792;DHT22;3940;49.892;10.886;2022-10-01T04:35:10;8.20;99.90
7792;DHT22;3940;49.892;10.886;2022-10-01T04:38:01;8.30;99.90
7792;DHT22;3940;49.892;10.886;2022-10-01T04:40:46;8.50;99.90
7792;DHT22;3940;49.892;10.886;2022-10-01T04:43:31;8.70;99.90
7792;DHT22;3940;49.892;10.886;2022-10-01T04:46:16;8.70;99.90
7792;DHT22;3940;49.892;10.886;2022-10-01T04:49:01;8.80;99.90
7792;DHT22;3940;49.892;10.886;2022-10-01T04:51:46;8.70;99.90
7792;DHT22;3940;49.892;10.886;2022-10-01T04:54:30;8.60;99.90
7792;DHT22;3940;49.892;10.886;2022-10-01T04:57:15;8.80;99.90
7792;DHT22;3940;49.892;10.886;2022-10-01T05:00:00;8.70;99.90
7792;DHT22;3940;49.892;10.886;2022-10-01T05:02:46;8.60;99.90
7792;DHT22;3940;49.892;10.886;2022-10-01T05:05:32;8.30;99.90
7792;DHT22;3940;49.892;10.886;2022-10-01T05:08:18;8.30;99.90
7792;DHT22;3940;49.892;10.886;2022-10-01T05:11:02;8.20;99.90
7792;DHT22;3940;49.892;10.886;2022-10-01T05:13:47;8.20;99.90
7792;DHT22;3940;49.892;10.886;2022-10-01T05:16:31;8.30;99.90
7792;DHT22;3940;49.892;10.886;2022-10-01T05:19:16;8.50;99.90
7792;DHT22;3940;49.892;10.886;2022-10-01T05:22:01;8.70;99.90
7792;DHT22;3940;49.892;10.886;2022-10-01T05:24:45;8.70;99.90
7792;DHT22;3940;49.892;10.886;2022-10-01T05:27:30;8.80;99.90
7792;DHT22;3940;49.892;10.886;2022-10-01T05:30:17;8.50;99.90
7792;DHT22;3940;49.892;10.886;2022-10-01T05:33:07;8.20;99.90
7792;DHT22;3940;49.892;10.886;2022-10-01T05:35:53;8.10;99.90
7792;DHT22;3940;49.892;10.886;2022-10-01T05:38:38;8.20;99.90
7792;DHT22;3940;49.892;10.886;2022-10-01T05:41:23;8.30;99.90
7792;DHT22;3940;49.892;10.886;2022-10-01T05:44:07;8.30;99.90
7792;DHT22;3940;49.892;10.886;2022-10-01T05:46:52;8.30;99.90
7792;DHT22;3940;49.892;10.886;2022-10-01T05:49:37;8.30;99.90
7792;DHT22;3940;49.892;10.886;2022-10-01T05:52:25;8.20;99.90
7792;DHT22;3940;49.892;10.886;2022-10-01T05:55:10;8.20;99.90
7792;DHT22;3940;49.892;10.886;2022-10-01T05:57:56;8.00;99.90
7792;DHT22;3940;49.892;10.886;2022-10-01T06:00:41;8.10;99.90
7792;DHT22;3940;49.892;10.886;2022-10-01T06:03:26;8.20;99.90
7792;DHT22;3940;49.892;10.886;2022-10-01T06:06:12;8.20;99.90
7792;DHT22;3940;49.892;10.886;2022-10-01T06:08:58;8.30;99.90
7792;DHT22;3940;49.892;10.886;2022-10-01T06:11:43;8.40;99.90
7792;DHT22;3940;49.892;10.886;2022-10-01T06:14:29;8.50;99.90
7792;DHT22;3940;49.892;10.886;2022-10-01T06:17:14;8.40;99.90
7792;DHT22;3940;49.892;10.886;2022-10-01T06:19:59;8.50;99.90
7792;DHT22;3940;49.892;10.886;2022-10-01T06:22:50;8.50;99.90
7792;DHT22;3940;49.892;10.886;2022-10-01T06:25:35;8.60;99.90
7792;DHT22;3940;49.892;10.886;2022-10-01T06:28:21;8.80;99.90
7792;DHT22;3940;49.892;10.886;2022-10-01T06:31:06;8.60;99.90
7792;DHT22;3940;49.892;10.886;2022-10-01T06:33:50;8.70;99.90
7792;DHT22;3940;49.892;10.886;2022-10-01T06:36:35;8.70;99.90
7792;DHT22;3940;49.892;10.886;2022-10-01T06:39:19;8.70;99.90
7792;DHT22;3940;49.892;10.886;2022-10-01T06:42:04;8.80;99.90
7792;DHT22;3940;49.892;10.886;2022-10-01T06:44:49;8.80;99.90
7792;DHT22;3940;49.892;10.886;2022-10-01T06:47:33;8.90;99.90
7792;DHT22;3940;49.892;10.886;2022-10-01T06:50:19;9.00;99.90
7792;DHT22;3940;49.892;10.886;2022-10-01T06:53:03;8.90;99.90
7792;DHT22;3940;49.892;10.886;2022-10-01T06:55:48;8.90;99.90
7792;DHT22;3940;49.892;10.886;2022-10-01T06:58:33;9.00;99.90
7792;DHT22;3940;49.892;10.886;2022-10-01T07:01:17;9.10;99.90
7792;DHT22;3940;49.892;10.886;2022-10-01T07:04:03;9.20;99.90
7792;DHT22;3940;49.892;10.886;2022-10-01T07:06:48;9.20;99.90
7792;DHT22;3940;49.892;10.886;2022-10-01T07:09:32;9.30;99.90
7792;DHT22;3940;49.892;10.886;2022-10-01T07:12:17;9.30;99.90
7792;DHT22;3940;49.892;10.886;2022-10-01T07:15:05;9.30;99.90
7792;DHT22;3940;49.892;10.886;2022-10-01T07:17:50;9.40;99.90
7792;DHT22;3940;49.892;10.886;2022-10-01T07:20:35;9.50;99.90
7792;DHT22;3940;49.892;10.886;2022-10-01T07:23:22;9.40;99.90
7792;DHT22;3940;49.892;10.886;2022-10-01T07:26:08;9.50;99.90
7792;DHT22;3940;49.892;10.886;2022-10-01T07:28:54;9.50;99.90
7792;DHT22;3940;49.892;10.886;2022-10-01T07:31:39;9.50;99.90
7792;DHT22;3940;49.892;10.886;2022-10-01T07:34:26;9.60;99.90
7792;DHT22;3940;49.892;10.886;2022-10-01T07:37:12;9.60;99.90
7792;DHT22;3940;49.892;10.886;2022-10-01T07:39:57;9.50;99.90
7792;DHT22;3940;49.892;10.886;2022-10-01T07:42:42;9.50;99.90
7792;DHT22;3940;49.892;10.886;2022-10-01T07:45:27;9.60;99.90
7792;DHT22;3940;49.892;10.886;2022-10-01T07:48:12;9.70;99.90
7792;DHT22;3940;49.892;10.886;2022-10-01T07:50:57;9.80;99.90
7792;DHT22;3940;49.892;10.886;2022-10-01T07:53:42;9.90;99.90
7792;DHT22;3940;49.892;10.886;2022-10-01T07:56:27;9.90;99.90
7792;DHT22;3940;49.892;10.886;2022-10-01T07:59:12;9.70;99.90
7792;DHT22;3940;49.892;10.886;2022-10-01T08:01:56;9.70;99.90
7792;DHT22;3940;49.892;10.886;2022-10-01T08:04:41;9.70;99.90
7792;DHT22;3940;49.892;10.886;2022-10-01T08:07:40;9.80;99.90
7792;DHT22;3940;49.892;10.886;2022-10-01T08:10:26;9.80;99.90
7792;DHT22;3940;49.892;10.886;2022-10-01T08:13:12;9.70;99.90
7792;DHT22;3940;49.892;10.886;2022-10-01T08:15:58;9.70;99.90
7792;DHT22;3940;49.892;10.886;2022-10-01T08:18:42;9.70;99.90
7792;DHT22;3940;49.892;10.886;2022-10-01T08:21:28;9.70;99.90
7792;DHT22;3940;49.892;10.886;2022-10-01T08:24:12;9.60;99.90
7792;DHT22;3940;49.892;10.886;2022-10-01T08:26:57;9.70;99.90
7792;DHT22;3940;49.892;10.886;2022-10-01T08:29:42;9.80;99.90
7792;DHT22;3940;49.892;10.886;2022-10-01T08:32:27;9.60;99.90
7792;DHT22;3940;49.892;10.886;2022-10-01T08:35:11;9.70;99.90
7792;DHT22;3940;49.892;10.886;2022-10-01T08:38:01;9.70;99.90
7792;DHT22;3940;49.892;10.886;2022-10-01T08:40:49;9.70;99.90
7792;DHT22;3940;49.892;10.886;2022-10-01T08:43:36;9.70;99.90
7792;DHT22;3940;49.892;10.886;2022-10-01T08:46:24;9.70;99.90
7792;DHT22;3940;49.892;10.886;2022-10-01T08:49:19;9.70;99.90
7792;DHT22;3940;49.892;10.886;2022-10-01T08:52:14;9.70;99.90
7792;DHT22;3940;49.892;10.886;2022-10-01T08:55:12;9.80;99.90
7792;DHT22;3940;49.892;10.886;2022-10-01T08:58:02;9.70;99.90
7792;DHT22;3940;49.892;10.886;2022-10-01T09:00:48;9.80;99.90
7792;DHT22;3940;49.892;10.886;2022-10-01T09:03:33;9.70;99.90
7792;DHT22;3940;49.892;10.886;2022-10-01T09:06:21;9.80;99.90
7792;DHT22;3940;49.892;10.886;2022-10-01T09:09:24;9.80;99.90
7792;DHT22;3940;49.892;10.886;2022-10-01T09:15:37;9.70;99.90
7792;DHT22;3940;49.892;10.886;2022-10-01T09:18:53;9.80;99.90
7792;DHT22;3940;49.892;10.886;2022-10-01T09:21:58;9.90;99.90
7792;DHT22;3940;49.892;10.886;2022-10-01T09:24:44;9.90;99.90
7792;DHT22;3940;49.892;10.886;2022-10-01T09:27:30;10.00;99.90
7792;DHT22;3940;49.892;10.886;2022-10-01T09:30:19;9.90;99.90
7792;DHT22;3940;49.892;10.886;2022-10-01T09:33:16;9.90;99.90
7792;DHT22;3940;49.892;10.886;2022-10-01T09:36:15;10.00;99.90
7792;DHT22;3940;49.892;10.886;2022-10-01T09:39:11;10.00;99.90
7792;DHT22;3940;49.892;10.886;2022-10-01T09:41:57;10.20;99.90
7792;DHT22;3940;49.892;10.886;2022-10-01T09:44:45;10.20;99.90
7792;DHT22;3940;49.892;10.886;2022-10-01T09:47:32;10.00;99.90
7792;DHT22;3940;49.892;10.886;2022-10-01T09:50:26;10.10;99.90
7792;DHT22;3940;49.892;10.886;2022-10-01T09:53:17;10.20;99.90
7792;DHT22;3940;49.892;10.886;2022-10-01T09:56:09;10.10;99.90
7792;DHT22;3940;49.892;10.886;2022-10-01T09:58:58;10.10;99.90
7792;DHT22;3940;49.892;10.886;2022-10-01T10:05:00;10.10;99.90
7792;DHT22;3940;49.892;10.886;2022-10-01T10:07:49;10.20;99.90
7792;DHT22;3940;49.892;10.886;2022-10-01T10:10:36;10.20;99.90
7792;DHT22;3940;49.892;10.886;2022-10-01T10:13:30;10.30;99.90
7792;DHT22;3940;49.892;10.886;2022-10-01T10:16:40;10.40;99.90
7792;DHT22;3940;49.892;10.886;2022-10-01T10:19:29;10.50;99.90
7792;DHT22;3940;49.892;10.886;2022-10-01T10:22:34;10.60;99.90
7792;DHT22;3940;49.892;10.886;2022-10-01T10:25:23;10.50;99.90
7792;DHT22;3940;49.892;10.886;2022-10-01T10:28:20;10.50;99.90
7792;DHT22;3940;49.892;10.886;2022-10-01T10:31:16;10.60;99.90
7792;DHT22;3940;49.892;10.886;2022-10-01T10:34:12;10.60;99.90
7792;DHT22;3940;49.892;10.886;2022-10-01T10:37:01;10.40;99.90
7792;DHT22;3940;49.892;10.886;2022-10-01T10:39:51;10.40;99.90
7792;DHT22;3940;49.892;10.886;2022-10-01T10:42:37;10.50;99.90
7792;DHT22;3940;49.892;10.886;2022-10-01T10:45:35;10.60;99.90
7792;DHT22;3940;49.892;10.886;2022-10-01T10:48:25;10.60;99.90
7792;DHT22;3940;49.892;10.886;2022-10-01T10:51:11;10.50;99.90
7792;DHT22;3940;49.892;10.886;2022-10-01T10:53:55;10.60;99.90
7792;DHT22;3940;49.892;10.886;2022-10-01T10:56:51;10.60;99.90
7792;DHT22;3940;49.892;10.886;2022-10-01T10:59:35;10.60;99.90
7792;DHT22;3940;49.892;10.886;2022-10-01T11:02:20;10.70;99.90
7792;DHT22;3940;49.892;10.886;2022-10-01T11:05:21;10.70;99.90
7792;DHT22;3940;49.892;10.886;2022-10-01T11:08:10;10.70;99.90
7792;DHT22;3940;49.892;10.886;2022-10-01T11:14:28;10.80;99.90
7792;DHT22;3940;49.892;10.886;2022-10-01T11:17:49;10.90;99.90
7792;DHT22;3940;49.892;10.886;2022-10-01T11:20:52;10.90;99.90
7792;DHT22;3940;49.892;10.886;2022-10-01T11:27:12;11.00;99.90
7792;DHT22;3940;49.892;10.886;2022-10-01T11:30:08;11.10;99.90
7792;DHT22;3940;49.892;10.886;2022-10-01T11:33:26;11.10;99.90
7792;DHT22;3940;49.892;10.886;2022-10-01T11:36:47;11.20;99.90
7792;DHT22;3940;49.892;10.886;2022-10-01T11:39:33;11.30;99.90
7792;DHT22;3940;49.892;10.886;2022-10-01T11:42:21;11.50;99.90
7792;DHT22;3940;49.892;10.886;2022-10-01T11:45:18;11.50;99.90
7792;DHT22;3940;49.892;10.886;2022-10-01T11:48:16;11.50;99.90
7792;DHT22;3940;49.892;10.886;2022-10-01T11:51:08;11.60;99.90
7792;DHT22;3940;49.892;10.886;2022-10-01T11:54:00;11.70;99.90
7792;DHT22;3940;49.892;10.886;2022-10-01T11:56:51;11.50;99.90
7792;DHT22;3940;49.892;10.886;2022-10-01T12:00:03;11.60;99.90
7792;DHT22;3940;49.892;10.886;2022-10-01T12:02:54;11.60;99.90
7792;DHT22;3940;49.892;10.886;2022-10-01T12:05:40;11.60;99.90
7792;DHT22;3940;49.892;10.886;2022-10-01T12:08:29;11.50;99.90
7792;DHT22;3940;49.892;10.886;2022-10-01T12:11:20;11.60;99.90
7792;DHT22;3940;49.892;10.886;2022-10-01T12:14:12;11.60;99.90
7792;DHT22;3940;49.892;10.886;2022-10-01T12:17:14;11.60;99.90
7792;DHT22;3940;49.892;10.886;2022-10-01T12:20:03;11.70;99.90
7792;DHT22;3940;49.892;10.886;2022-10-01T12:22:50;11.80;99.90
7792;DHT22;3940;49.892;10.886;2022-10-01T12:26:00;11.90;99.90
7792;DHT22;3940;49.892;10.886;2022-10-01T12:28:56;11.80;99.90
7792;DHT22;3940;49.892;10.886;2022-10-01T12:31:57;11.80;99.90
7792;DHT22;3940;49.892;10.886;2022-10-01T12:38:16;11.70;99.90
7792;DHT22;3940;49.892;10.886;2022-10-01T12:41:14;11.70;99.90
7792;DHT22;3940;49.892;10.886;2022-10-01T12:44:27;11.70;99.90
7792;DHT22;3940;49.892;10.886;2022-10-01T12:47:31;11.80;99.90
7792;DHT22;3940;49.892;10.886;2022-10-01T12:50:27;11.90;99.90
7792;DHT22;3940;49.892;10.886;2022-10-01T12:53:38;12.00;99.90
7792;DHT22;3940;49.892;10.886;2022-10-01T12:56:33;12.20;99.90
7792;DHT22;3940;49.892;10.886;2022-10-01T12:59:32;12.30;99.90
7792;DHT22;3940;49.892;10.886;2022-10-01T13:02:41;12.20;99.90
7792;DHT22;3940;49.892;10.886;2022-10-01T13:05:43;12.20;99.90
7792;DHT22;3940;49.892;10.886;2022-10-01T13:09:02;12.20;99.90
7792;DHT22;3940;49.892;10.886;2022-10-01T13:12:01;12.30;99.90
7792;DHT22;3940;49.892;10.886;2022-10-01T13:14:50;12.40;99.90
7792;DHT22;3940;49.892;10.886;2022-10-01T13:17:42;12.40;99.90
7792;DHT22;3940;49.892;10.886;2022-10-01T13:20:46;12.50;99.90
7792;DHT22;3940;49.892;10.886;2022-10-01T13:23:46;12.60;99.90
7792;DHT22;3940;49.892;10.886;2022-10-01T13:26:44;12.70;99.90
7792;DHT22;3940;49.892;10.886;2022-10-01T13:29:40;12.80;99.90
7792;DHT22;3940;49.892;10.886;2022-10-01T13:32:33;12.90;99.90
7792;DHT22;3940;49.892;10.886;2022-10-01T13:38:41;13.00;99.90
7792;DHT22;3940;49.892;10.886;2022-10-01T13:41:29;12.90;99.90
7792;DHT22;3940;49.892;10.886;2022-10-01T13:44:23;12.80;99.90
7792;DHT22;3940;49.892;10.886;2022-10-01T13:47:09;12.90;99.90
7792;DHT22;3940;49.892;10.886;2022-10-01T13:50:00;12.90;99.90
7792;DHT22;3940;49.892;10.886;2022-10-01T13:52:50;12.90;99.90
7792;DHT22;3940;49.892;10.886;2022-10-01T13:55:40;12.80;99.90
7792;DHT22;3940;49.892;10.886;2022-10-01T13:58:38;12.90;99.90
7792;DHT22;3940;49.892;10.886;2022-10-01T14:01:29;13.00;99.90
7792;DHT22;3940;49.892;10.886;2022-10-01T14:07:34;12.90;99.90
7792;DHT22;3940;49.892;10.886;2022-10-01T14:10:24;12.90;99.90
7792;DHT22;3940;49.892;10.886;2022-10-01T14:13:14;12.80;99.90
7792;DHT22;3940;49.892;10.886;2022-10-01T14:16:11;12.80;99.90
7792;DHT22;3940;49.892;10.886;2022-10-01T14:18:56;12.80;99.90
7792;DHT22;3940;49.892;10.886;2022-10-01T14:21:59;12.90;99.90
7792;DHT22;3940;49.892;10.886;2022-10-01T14:25:11;12.90;99.90
7792;DHT22;3940;49.892;10.886;2022-10-01T14:28:14;13.00;99.90
7792;DHT22;3940;49.892;10.886;2022-10-01T14:31:19;13.00;99.90
7792;DHT22;3940;49.892;10.886;2022-10-01T14:37:21;13.30;99.90
7792;DHT22;3940;49.892;10.886;2022-10-01T14:40:15;13.20;99.90
7792;DHT22;3940;49.892;10.886;2022-10-01T14:43:08;13.30;99.90
7792;DHT22;3940;49.892;10.886;2022-10-01T14:45:59;13.30;99.90
7792;DHT22;3940;49.892;10.886;2022-10-01T14:48:56;13.40;99.90
7792;DHT22;3940;49.892;10.886;2022-10-01T14:51:50;13.40;99.90
7792;DHT22;3940;49.892;10.886;2022-10-01T14:54:51;13.40;99.90
7792;DHT22;3940;49.892;10.886;2022-10-01T14:57:44;13.20;99.90
7792;DHT22;3940;49.892;10.886;2022-10-01T15:00:30;13.30;99.90
7792;DHT22;3940;49.892;10.886;2022-10-01T15:03:16;13.30;99.90
7792;DHT22;3940;49.892;10.886;2022-10-01T15:06:03;13.50;99.90
7792;DHT22;3940;49.892;10.886;2022-10-01T15:08:50;13.30;99.90
7792;DHT22;3940;49.892;10.886;2022-10-01T15:11:35;13.40;99.90
7792;DHT22;3940;49.892;10.886;2022-10-01T15:14:23;13.50;99.90
7792;DHT22;3940;49.892;10.886;2022-10-01T15:17:20;13.40;99.90
7792;DHT22;3940;49.892;10.886;2022-10-01T15:20:05;13.40;99.90
7792;DHT22;3940;49.892;10.886;2022-10-01T15:22:50;13.40;99.90
7792;DHT22;3940;49.892;10.886;2022-10-01T15:25:43;13.40;99.90
7792;DHT22;3940;49.892;10.886;2022-10-01T15:28:30;13.30;99.90
7792;DHT22;3940;49.892;10.886;2022-10-01T15:31:15;13.40;99.90
7792;DHT22;3940;49.892;10.886;2022-10-01T15:34:02;13.40;99.90
7792;DHT22;3940;49.892;10.886;2022-10-01T15:36:47;13.30;99.90
7792;DHT22;3940;49.892;10.886;2022-10-01T15:39:36;13.20;99.90
7792;DHT22;3940;49.892;10.886;2022-10-01T15:42:24;13.20;99.90
7792;DHT22;3940;49.892;10.886;2022-10-01T15:45:21;13.30;99.90
7792;DHT22;3940;49.892;10.886;2022-10-01T15:48:25;13.30;99.90
7792;DHT22;3940;49.892;10.886;2022-10-01T15:51:17;13.40;99.90
7792;DHT22;3940;49.892;10.886;2022-10-01T15:54:07;13.30;99.90
7792;DHT22;3940;49.892;10.886;2022-10-01T15:56:52;13.30;99.90
7792;DHT22;3940;49.892;10.886;2022-10-01T15:59:38;13.40;99.90
7792;DHT22;3940;49.892;10.886;2022-10-01T16:02:26;13.40;99.90
7792;DHT22;3940;49.892;10.886;2022-10-01T16:05:17;13.30;99.90
7792;DHT22;3940;49.892;10.886;2022-10-01T16:08:02;13.30;99.90
7792;DHT22;3940;49.892;10.886;2022-10-01T16:11:06;13.30;99.90
7792;DHT22;3940;49.892;10.886;2022-10-01T16:14:20;13.30;99.90
7792;DHT22;3940;49.892;10.886;2022-10-01T16:17:29;13.40;99.90
7792;DHT22;3940;49.892;10.886;2022-10-01T16:20:35;13.40;99.90
7792;DHT22;3940;49.892;10.886;2022-10-01T16:23:34;13.40;99.90
7792;DHT22;3940;49.892;10.886;2022-10-01T16:26:37;13.30;99.90
7792;DHT22;3940;49.892;10.886;2022-10-01T16:29:23;13.30;99.90
7792;DHT22;3940;49.892;10.886;2022-10-01T16:32:12;13.20;99.90
7792;DHT22;3940;49.892;10.886;2022-10-01T16:38:09;13.30;99.90
7792;DHT22;3940;49.892;10.886;2022-10-01T16:40:53;13.20;99.90
7792;DHT22;3940;49.892;10.886;2022-10-01T16:43:38;13.20;99.90
7792;DHT22;3940;49.892;10.886;2022-10-01T16:46:23;13.20;99.90
7792;DHT22;3940;49.892;10.886;2022-10-01T16:49:11;13.30;99.90
7792;DHT22;3940;49.892;10.886;2022-10-01T16:51:57;13.30;99.90
7792;DHT22;3940;49.892;10.886;2022-10-01T16:54:42;13.30;99.90
7792;DHT22;3940;49.892;10.886;2022-10-01T16:57:27;13.30;99.90
7792;DHT22;3940;49.892;10.886;2022-10-01T17:00:14;13.30;99.90
7792;DHT22;3940;49.892;10.886;2022-10-01T17:02:59;13.30;99.90
7792;DHT22;3940;49.892;10.886;2022-10-01T17:05:45;13.40;99.90
7792;DHT22;3940;49.892;10.886;2022-10-01T17:08:29;13.40;99.90
7792;DHT22;3940;49.892;10.886;2022-10-01T17:11:14;13.40;99.90
7792;DHT22;3940;49.892;10.886;2022-10-01T17:13:59;13.40;99.90
7792;DHT22;3940;49.892;10.886;2022-10-01T17:16:43;13.30;99.90
7792;DHT22;3940;49.892;10.886;2022-10-01T17:19:28;13.20;99.90
7792;DHT22;3940;49.892;10.886;2022-10-01T17:22:12;13.20;99.90
7792;DHT22;3940;49.892;10.886;2022-10-01T17:24:57;13.20;99.90
7792;DHT22;3940;49.892;10.886;2022-10-01T17:27:42;13.20;99.90
7792;DHT22;3940;49.892;10.886;2022-10-01T17:30:26;13.20;99.90
7792;DHT22;3940;49.892;10.886;2022-10-01T17:33:14;13.20;99.90
7792;DHT22;3940;49.892;10.886;2022-10-01T17:35:59;13.20;99.90
7792;DHT22;3940;49.892;10.886;2022-10-01T17:38:44;13.10;99.90
7792;DHT22;3940;49.892;10.886;2022-10-01T17:41:28;13.00;99.90
7792;DHT22;3940;49.892;10.886;2022-10-01T17:44:13;13.00;99.90
7792;DHT22;3940;49.892;10.886;2022-10-01T17:46:59;13.00;99.90
7792;DHT22;3940;49.892;10.886;2022-10-01T17:49:43;12.90;99.90
7792;DHT22;3940;49.892;10.886;2022-10-01T17:52:29;12.90;99.90
7792;DHT22;3940;49.892;10.886;2022-10-01T17:55:15;12.90;99.90
7792;DHT22;3940;49.892;10.886;2022-10-01T17:58:00;12.90;99.90
7792;DHT22;3940;49.892;10.886;2022-10-01T18:00:45;12.90;99.90
7792;DHT22;3940;49.892;10.886;2022-10-01T18:03:30;12.80;99.90
7792;DHT22;3940;49.892;10.886;2022-10-01T18:06:14;12.80;99.90
7792;DHT22;3940;49.892;10.886;2022-10-01T18:08:59;12.70;99.90
7792;DHT22;3940;49.892;10.886;2022-10-01T18:11:43;12.50;99.90
7792;DHT22;3940;49.892;10.886;2022-10-01T18:14:28;12.50;99.90
7792;DHT22;3940;49.892;10.886;2022-10-01T18:17:13;12.40;99.90
7792;DHT22;3940;49.892;10.886;2022-10-01T18:19:58;12.10;99.90
7792;DHT22;3940;49.892;10.886;2022-10-01T18:22:42;12.20;99.90
7792;DHT22;3940;49.892;10.886;2022-10-01T18:25:27;12.20;99.90
7792;DHT22;3940;49.892;10.886;2022-10-01T18:28:12;12.10;99.90
7792;DHT22;3940;49.892;10.886;2022-10-01T18:31:18;12.00;99.90
7792;DHT22;3940;49.892;10.886;2022-10-01T18:34:14;11.80;99.90
7792;DHT22;3940;49.892;10.886;2022-10-01T18:37:18;11.70;99.90
7792;DHT22;3940;49.892;10.886;2022-10-01T18:40:11;11.80;99.90
7792;DHT22;3940;49.892;10.886;2022-10-01T18:50:05;11.90;99.90
7792;DHT22;3940;49.892;10.886;2022-10-01T18:59:14;12.00;99.90
7792;DHT22;3940;49.892;10.886;2022-10-01T19:02:18;12.10;99.90
7792;DHT22;3940;49.892;10.886;2022-10-01T19:08:39;12.20;99.90
7792;DHT22;3940;49.892;10.886;2022-10-01T19:14:54;12.20;99.90
7792;DHT22;3940;49.892;10.886;2022-10-01T19:21:02;12.20;99.90